createdAt,value
2017-09-14T00:00:28.484Z,9.13
2017-09-14T00:02:55.955Z,9.13
2017-09-14T00:05:23.642Z,13.30
2017-09-14T00:07:51.914Z,7.30
2017-09-14T00:10:19.427Z,12.90
2017-09-14T00:12:46.972Z,10.30
2017-09-14T00:15:14.452Z,12.40
2017-09-14T00:17:42.073Z,11.00
2017-09-14T00:20:09.681Z,9.23
2017-09-14T00:22:37.382Z,11.17
2017-09-14T00:25:06.548Z,13.60
2017-09-14T00:27:34.075Z,13.10
2017-09-14T00:30:01.598Z,9.80
2017-09-14T00:32:29.843Z,10.70
2017-09-14T00:34:57.349Z,13.40
2017-09-14T00:37:24.846Z,19.30
2017-09-14T00:39:52.646Z,11.60
2017-09-14T00:42:20.939Z,13.50
2017-09-14T00:44:49.210Z,12.97
2017-09-14T00:47:17.481Z,12.13
2017-09-14T00:49:45.721Z,9.73
2017-09-14T00:52:13.291Z,17.27
2017-09-14T00:54:41.084Z,15.47
2017-09-14T00:57:09.466Z,7.53
2017-09-14T00:59:37.725Z,18.37
2017-09-14T01:02:06.027Z,14.17
2017-09-14T01:04:33.526Z,13.63
2017-09-14T01:07:01.945Z,6.73
2017-09-14T01:09:29.574Z,13.27
2017-09-14T01:11:57.040Z,25.97
2017-09-14T01:14:24.590Z,12.00
2017-09-14T01:16:52.077Z,13.27
2017-09-14T01:19:20.324Z,18.00
2017-09-14T01:21:47.775Z,4.70
2017-09-14T01:24:15.276Z,10.17
2017-09-14T01:26:44.434Z,18.43
2017-09-14T01:29:11.966Z,12.83
2017-09-14T01:31:39.425Z,13.93
2017-09-14T01:34:06.988Z,11.27
2017-09-14T01:36:34.474Z,25.20
2017-09-14T01:39:01.936Z,15.10
2017-09-14T01:41:29.433Z,12.60
2017-09-14T01:43:57.009Z,22.73
2017-09-14T01:46:24.626Z,9.47
2017-09-14T01:48:52.908Z,8.27
2017-09-14T01:51:21.877Z,14.40
2017-09-14T01:53:49.383Z,16.40
2017-09-14T01:56:16.869Z,12.70
2017-09-14T01:58:44.378Z,10.37
2017-09-14T02:01:13.490Z,35.17
2017-09-14T02:03:41.007Z,64.23
2017-09-14T02:06:08.515Z,11.20
2017-09-14T02:08:37.309Z,19.27
2017-09-14T02:11:04.830Z,23.67
2017-09-14T02:13:33.066Z,16.33
2017-09-14T02:16:00.614Z,12.30
2017-09-14T02:18:28.113Z,19.30
2017-09-14T02:20:55.720Z,9.77
2017-09-14T02:23:23.933Z,38.70
2017-09-14T02:25:51.419Z,23.80
2017-09-14T02:28:19.684Z,15.07
2017-09-14T02:30:47.170Z,11.53
2017-09-14T02:33:14.639Z,23.07
2017-09-14T02:35:42.109Z,13.43
2017-09-14T02:38:09.596Z,17.27
2017-09-14T02:40:37.069Z,18.77
2017-09-14T02:43:04.541Z,19.07
2017-09-14T02:45:32.807Z,14.27
2017-09-14T02:48:00.273Z,21.53
2017-09-14T02:50:28.742Z,37.40
2017-09-14T02:52:56.404Z,31.57
2017-09-14T02:55:23.873Z,7.93
2017-09-14T02:57:52.105Z,14.47
2017-09-14T03:00:19.584Z,15.50
2017-09-14T03:02:47.152Z,16.80
2017-09-14T03:05:14.729Z,17.77
2017-09-14T03:07:42.977Z,38.80
2017-09-14T03:10:10.745Z,27.97
2017-09-14T03:12:38.247Z,15.13
2017-09-14T03:15:05.740Z,14.97
2017-09-14T03:17:33.219Z,18.27
2017-09-14T03:20:00.705Z,14.03
2017-09-14T03:22:28.997Z,13.37
2017-09-14T03:24:56.460Z,19.10
2017-09-14T03:27:23.948Z,15.30
2017-09-14T03:29:51.544Z,19.80
2017-09-14T03:32:19.876Z,20.60
2017-09-14T03:34:47.353Z,11.57
2017-09-14T03:37:14.823Z,10.67
2017-09-14T03:39:42.313Z,14.60
2017-09-14T03:42:09.826Z,9.73
2017-09-14T03:44:37.333Z,13.63
2017-09-14T03:47:04.915Z,24.23
2017-09-14T03:49:32.431Z,12.30
2017-09-14T03:52:00.708Z,21.43
2017-09-14T03:54:29.134Z,13.50
2017-09-14T03:56:56.617Z,10.90
2017-09-14T03:59:24.127Z,16.30
2017-09-14T04:01:51.632Z,8.67
2017-09-14T04:04:19.094Z,19.43
2017-09-14T04:06:46.728Z,18.23
2017-09-14T04:09:14.262Z,12.63
2017-09-14T04:11:41.766Z,18.50
2017-09-14T04:14:09.232Z,21.83
2017-09-14T04:16:36.840Z,27.93
2017-09-14T04:19:04.326Z,18.77
2017-09-14T04:21:32.125Z,17.43
2017-09-14T04:24:00.369Z,31.67
2017-09-14T04:26:27.869Z,27.27
2017-09-14T04:28:56.114Z,29.80
2017-09-14T04:31:23.676Z,15.73
2017-09-14T04:33:51.249Z,20.17
2017-09-14T04:36:19.507Z,12.93
2017-09-14T04:38:46.995Z,23.60
2017-09-14T04:41:15.250Z,14.10
2017-09-14T04:43:42.964Z,14.33
2017-09-14T04:46:10.449Z,17.80
2017-09-14T04:48:37.997Z,13.80
2017-09-14T04:51:05.468Z,15.03
2017-09-14T04:53:32.948Z,18.10
2017-09-14T04:56:00.499Z,16.50
2017-09-14T04:58:28.113Z,22.40
2017-09-14T05:00:55.821Z,31.40
2017-09-14T05:03:23.439Z,18.43
2017-09-14T05:05:50.922Z,25.40
2017-09-14T05:08:18.404Z,22.63
2017-09-14T05:10:45.891Z,42.77
2017-09-14T05:13:13.371Z,45.67
2017-09-14T05:15:40.902Z,27.17
2017-09-14T05:18:09.372Z,29.30
2017-09-14T05:20:37.674Z,34.20
2017-09-14T05:23:05.169Z,30.67
2017-09-14T05:25:32.695Z,21.70
2017-09-14T05:28:00.161Z,76.27
2017-09-14T05:30:27.650Z,33.00
2017-09-14T05:32:55.119Z,21.00
2017-09-14T05:35:23.009Z,21.93
2017-09-14T05:37:51.281Z,30.23
2017-09-14T05:42:27.647Z,22.17
2017-09-14T05:44:55.211Z,22.77
2017-09-14T05:49:14.256Z,16.00
2017-09-14T05:51:41.714Z,17.50
2017-09-14T05:54:09.218Z,12.83
2017-09-14T05:56:37.466Z,23.33
2017-09-14T05:59:04.951Z,20.70
2017-09-14T06:01:33.195Z,31.37
2017-09-14T06:04:00.717Z,26.97
2017-09-14T06:06:28.194Z,16.37
2017-09-14T06:08:55.720Z,17.03
2017-09-14T06:11:23.302Z,16.70
2017-09-14T06:13:50.826Z,17.53
2017-09-14T06:16:18.706Z,19.73
2017-09-14T06:18:46.228Z,17.47
2017-09-14T06:21:14.474Z,9.00
2017-09-14T06:23:41.954Z,15.00
2017-09-14T06:26:10.239Z,15.23
2017-09-14T06:28:38.530Z,13.20
2017-09-14T06:31:05.966Z,19.93
2017-09-14T06:33:34.246Z,14.07
2017-09-14T06:36:02.509Z,10.60
2017-09-14T06:38:29.998Z,8.13
2017-09-14T06:40:57.489Z,7.40
2017-09-14T06:43:25.062Z,7.10
2017-09-14T06:45:52.694Z,8.20
2017-09-14T06:48:20.160Z,4.93
2017-09-14T06:50:47.655Z,7.60
2017-09-14T06:53:15.131Z,4.60
2017-09-14T06:55:43.391Z,9.80
2017-09-14T06:58:11.058Z,4.33
2017-09-14T07:00:38.543Z,9.60
2017-09-14T07:03:06.095Z,9.47
2017-09-14T07:05:34.351Z,4.10
2017-09-14T07:08:01.884Z,7.57
2017-09-14T07:10:29.379Z,7.87
2017-09-14T07:12:57.640Z,7.70
2017-09-14T07:15:25.456Z,4.20
2017-09-14T07:17:52.929Z,5.20
2017-09-14T07:20:21.184Z,3.50
2017-09-14T07:22:48.694Z,4.80
2017-09-14T07:25:16.176Z,7.50
2017-09-14T07:27:44.433Z,8.07
2017-09-14T07:30:12.201Z,6.70
2017-09-14T07:32:40.434Z,6.20
2017-09-14T07:35:07.949Z,4.20
2017-09-14T07:37:36.208Z,8.97
2017-09-14T07:40:04.458Z,4.10
2017-09-14T07:42:31.949Z,3.73
2017-09-14T07:45:00.245Z,3.20
2017-09-14T07:47:27.766Z,9.70
2017-09-14T07:49:55.399Z,3.40
2017-09-14T07:52:22.878Z,3.17
2017-09-14T07:54:50.368Z,5.83
2017-09-14T07:57:17.888Z,6.30
2017-09-14T07:59:45.597Z,5.47
2017-09-14T08:02:13.105Z,4.07
2017-09-14T08:04:40.567Z,6.30
2017-09-14T08:07:08.505Z,5.00
2017-09-14T08:09:36.002Z,7.90
2017-09-14T08:12:03.484Z,7.23
2017-09-14T08:14:31.840Z,3.33
2017-09-14T08:16:59.345Z,3.53
2017-09-14T08:19:26.820Z,3.10
2017-09-14T08:21:54.622Z,4.17
2017-09-14T08:24:22.144Z,7.03
2017-09-14T08:26:49.634Z,3.10
2017-09-14T08:29:17.092Z,2.63
2017-09-14T08:31:44.601Z,3.50
2017-09-14T08:34:12.086Z,2.43
2017-09-14T08:36:39.649Z,7.87
2017-09-14T08:39:07.153Z,5.07
2017-09-14T08:41:34.682Z,3.57
2017-09-14T08:44:02.211Z,2.33
2017-09-14T08:46:29.687Z,3.90
2017-09-14T08:48:57.195Z,5.47
2017-09-14T08:51:24.737Z,3.67
2017-09-14T08:53:53.043Z,3.50
2017-09-14T08:56:20.629Z,8.03
2017-09-14T08:58:48.364Z,4.33
2017-09-14T09:01:15.865Z,3.63
2017-09-14T09:03:43.497Z,6.10
2017-09-14T09:06:11.015Z,7.53
2017-09-14T09:08:39.255Z,3.60
2017-09-14T09:11:06.992Z,4.97
2017-09-14T09:13:36.273Z,3.30
2017-09-14T09:16:03.740Z,7.33
2017-09-14T09:18:31.276Z,10.10
2017-09-14T09:20:59.529Z,9.40
2017-09-14T09:23:27.238Z,7.53
2017-09-14T09:25:54.710Z,8.20
2017-09-14T09:28:22.174Z,4.77
2017-09-14T09:30:49.656Z,3.87
2017-09-14T09:33:17.149Z,6.17
2017-09-14T09:35:44.655Z,6.43
2017-09-14T09:38:12.134Z,5.73
2017-09-14T09:40:39.798Z,3.67
2017-09-14T09:43:07.852Z,7.20
2017-09-14T09:45:35.333Z,4.10
2017-09-14T09:48:03.586Z,4.23
2017-09-14T09:50:31.052Z,8.13
2017-09-14T09:52:58.576Z,5.70
2017-09-14T09:55:26.033Z,8.43
2017-09-14T09:57:53.748Z,7.60
2017-09-14T10:00:22.539Z,6.77
2017-09-14T10:02:50.778Z,5.50
2017-09-14T10:05:18.349Z,7.00
2017-09-14T10:07:45.969Z,2.90
2017-09-14T10:10:13.441Z,7.37
2017-09-14T10:12:40.918Z,2.47
2017-09-14T10:15:08.434Z,3.60
2017-09-14T10:17:35.939Z,5.00
2017-09-14T10:20:03.559Z,2.90
2017-09-14T10:22:31.023Z,3.37
2017-09-14T10:24:58.486Z,6.10
2017-09-14T10:27:25.986Z,3.50
2017-09-14T10:29:54.234Z,3.63
2017-09-14T10:32:21.928Z,2.07
2017-09-14T10:34:50.198Z,2.80
2017-09-14T10:37:17.672Z,3.00
2017-09-14T10:39:45.938Z,2.23
2017-09-14T10:42:14.228Z,3.13
2017-09-14T10:44:42.492Z,5.30
2017-09-14T10:47:10.775Z,4.10
2017-09-14T10:49:39.033Z,5.07
2017-09-14T10:52:06.488Z,12.67
2017-09-14T10:54:33.965Z,14.40
2017-09-14T10:57:02.380Z,13.80
2017-09-14T10:59:30.412Z,8.97
2017-09-14T11:01:58.668Z,8.27
2017-09-14T11:04:26.159Z,2.30
2017-09-14T11:06:54.458Z,3.57
2017-09-14T11:09:22.019Z,2.50
2017-09-14T11:11:49.511Z,7.67
2017-09-14T11:14:17.136Z,3.10
2017-09-14T11:16:44.619Z,2.77
2017-09-14T11:19:12.121Z,4.10
2017-09-14T11:21:40.345Z,6.43
2017-09-14T11:24:07.853Z,9.80
2017-09-14T11:26:36.396Z,5.83
2017-09-14T11:29:03.881Z,4.03
2017-09-14T11:31:32.167Z,11.47
2017-09-14T11:34:02.142Z,4.20
2017-09-14T11:36:32.034Z,4.63
2017-09-14T11:38:59.514Z,7.50
2017-09-14T11:44:00.951Z,3.37
2017-09-14T11:46:28.507Z,12.10
2017-09-14T11:48:56.703Z,7.23
2017-09-14T11:51:24.299Z,6.87
2017-09-14T11:53:51.802Z,9.53
2017-09-14T11:56:19.268Z,3.07
2017-09-14T11:58:46.778Z,6.00
2017-09-14T12:01:14.998Z,16.93
2017-09-14T12:03:42.701Z,11.20
2017-09-14T12:06:10.402Z,4.27
2017-09-14T12:08:37.878Z,3.40
2017-09-14T12:11:05.403Z,6.33
2017-09-14T12:13:33.629Z,5.43
2017-09-14T12:16:01.169Z,3.60
2017-09-14T12:18:28.741Z,8.60
2017-09-14T12:20:56.685Z,4.50
2017-09-14T12:23:24.150Z,5.07
2017-09-14T12:25:51.769Z,8.30
2017-09-14T12:28:20.819Z,2.77
2017-09-14T12:30:48.317Z,10.37
2017-09-14T12:33:15.786Z,5.73
2017-09-14T12:35:44.021Z,7.17
2017-09-14T12:38:11.653Z,6.93
2017-09-14T12:40:39.191Z,3.57
2017-09-14T12:43:07.431Z,2.90
2017-09-14T12:45:34.930Z,3.63
2017-09-14T12:48:03.174Z,4.60
2017-09-14T12:50:30.655Z,2.70
2017-09-14T12:52:58.943Z,2.47
2017-09-14T12:55:26.458Z,3.47
2017-09-14T12:57:53.948Z,2.80
2017-09-14T13:00:22.712Z,4.87
2017-09-14T13:02:51.701Z,4.17
2017-09-14T13:05:19.218Z,4.87
2017-09-14T13:07:46.781Z,8.20
2017-09-14T13:10:14.265Z,4.83
2017-09-14T13:12:41.947Z,6.20
2017-09-14T13:15:09.456Z,6.03
2017-09-14T13:17:36.965Z,4.87
2017-09-14T13:20:04.446Z,2.87
2017-09-14T13:22:32.733Z,5.90
2017-09-14T13:25:01.114Z,3.40
2017-09-14T13:27:28.577Z,2.83
2017-09-14T13:29:57.300Z,6.67
2017-09-14T13:32:24.789Z,4.30
2017-09-14T13:34:53.085Z,7.90
2017-09-14T13:37:20.589Z,5.10
2017-09-14T13:39:48.903Z,26.23
2017-09-14T13:42:17.152Z,15.60
2017-09-14T13:44:44.627Z,9.67
2017-09-14T13:47:12.162Z,11.23
2017-09-14T13:49:39.639Z,4.33
2017-09-14T13:52:08.910Z,2.03
2017-09-14T13:54:36.406Z,4.67
2017-09-14T13:57:04.672Z,4.23
2017-09-14T13:59:33.001Z,3.23
2017-09-14T14:02:00.483Z,3.03
2017-09-14T14:04:28.203Z,3.60
2017-09-14T14:06:55.718Z,2.30
2017-09-14T14:09:23.946Z,4.10
2017-09-14T14:11:51.451Z,2.70
2017-09-14T14:14:18.934Z,2.63
2017-09-14T14:16:47.201Z,2.80
2017-09-14T14:19:15.445Z,2.73
2017-09-14T14:21:43.351Z,2.70
2017-09-14T14:24:11.614Z,2.80
2017-09-14T14:26:39.227Z,2.77
2017-09-14T14:29:06.747Z,3.70
2017-09-14T14:31:35.087Z,2.80
2017-09-14T14:34:02.562Z,3.07
2017-09-14T14:36:30.810Z,2.97
2017-09-14T14:38:58.549Z,2.70
2017-09-14T14:41:26.015Z,3.50
2017-09-14T14:43:53.503Z,2.83
2017-09-14T14:46:21.064Z,3.80
2017-09-14T14:48:48.582Z,6.33
2017-09-14T14:51:16.127Z,2.63
2017-09-14T14:53:43.595Z,2.53
2017-09-14T14:56:11.267Z,6.27
2017-09-14T14:58:38.726Z,6.40
2017-09-14T15:01:06.204Z,5.77
2017-09-14T15:03:33.742Z,2.97
2017-09-14T15:06:01.257Z,4.83
2017-09-14T15:08:29.535Z,6.20
2017-09-14T15:10:57.806Z,3.60
2017-09-14T15:13:26.505Z,6.70
2017-09-14T15:15:53.975Z,2.93
2017-09-14T15:18:21.436Z,9.60
2017-09-14T15:20:48.917Z,3.27
2017-09-14T15:23:16.434Z,8.20
2017-09-14T15:25:44.785Z,3.03
2017-09-14T15:28:12.260Z,6.70
2017-09-14T15:30:41.013Z,2.70
2017-09-14T15:33:09.260Z,2.87
2017-09-14T15:35:36.776Z,2.70
2017-09-14T15:38:04.344Z,2.80
2017-09-14T15:40:37.613Z,5.10
2017-09-14T15:43:10.930Z,2.50
2017-09-14T15:45:40.056Z,2.87
2017-09-14T15:48:13.212Z,5.03
2017-09-14T15:52:38.862Z,2.13
2017-09-14T15:55:06.378Z,2.40
2017-09-14T15:57:33.866Z,4.83
2017-09-14T16:00:01.388Z,2.37
2017-09-14T16:02:29.216Z,3.13
2017-09-14T16:11:09.794Z,2.42
2017-09-14T16:13:38.030Z,2.50
2017-09-14T16:18:39.798Z,2.17
2017-09-14T16:24:28.705Z,5.33
2017-09-14T16:26:57.055Z,4.60
2017-09-14T16:30:27.340Z,3.23
2017-09-14T16:32:54.830Z,2.70
2017-09-14T16:35:22.365Z,3.45
2017-09-14T16:37:49.854Z,3.00
2017-09-14T16:40:17.421Z,3.13
2017-09-14T16:42:45.080Z,3.40
2017-09-14T16:45:12.547Z,6.83
2017-09-14T16:47:40.066Z,16.90
2017-09-14T16:50:07.587Z,4.37
2017-09-14T16:52:35.935Z,3.30
2017-09-14T16:55:03.417Z,3.13
2017-09-14T16:57:30.927Z,5.87
2017-09-14T16:59:58.422Z,5.57
2017-09-14T17:02:26.036Z,5.40
2017-09-14T17:04:53.799Z,3.60
2017-09-14T17:07:21.317Z,8.63
2017-09-14T17:09:49.607Z,4.20
2017-09-14T17:12:17.881Z,7.07
2017-09-14T17:14:46.155Z,5.10
2017-09-14T17:17:14.450Z,4.50
2017-09-14T17:19:41.995Z,3.10
2017-09-14T17:22:10.557Z,4.40
2017-09-14T17:24:38.107Z,9.80
2017-09-14T17:27:05.631Z,19.90
2017-09-14T17:29:33.152Z,6.07
2017-09-14T17:32:01.412Z,4.30
2017-09-14T17:34:28.899Z,7.27
2017-09-14T17:36:56.387Z,4.43
2017-09-14T17:39:23.892Z,6.63
2017-09-14T17:41:52.268Z,3.13
2017-09-14T17:44:20.790Z,6.87
2017-09-14T17:46:48.314Z,4.93
2017-09-14T17:49:16.595Z,6.90
2017-09-14T17:51:44.879Z,5.07
2017-09-14T17:54:14.062Z,6.50
2017-09-14T17:56:42.348Z,4.20
2017-09-14T17:59:09.859Z,10.37
2017-09-14T18:01:37.422Z,9.30
2017-09-14T18:04:04.926Z,7.33
2017-09-14T18:06:33.227Z,4.90
2017-09-14T18:09:00.931Z,9.23
2017-09-14T18:11:28.444Z,7.53
2017-09-14T18:13:56.018Z,11.93
2017-09-14T18:16:23.555Z,3.60
2017-09-14T18:18:51.079Z,5.87
2017-09-14T18:21:18.594Z,10.20
2017-09-14T18:23:46.096Z,16.53
2017-09-14T18:26:13.656Z,4.97
2017-09-14T18:28:41.125Z,6.30
2017-09-14T18:31:09.439Z,2.90
2017-09-14T18:33:36.945Z,5.93
2017-09-14T18:36:04.721Z,6.03
2017-09-14T18:38:32.970Z,6.23
2017-09-14T18:41:00.555Z,9.07
2017-09-14T18:43:28.793Z,6.97
2017-09-14T18:45:56.291Z,4.90
2017-09-14T18:48:23.832Z,4.20
2017-09-14T18:50:51.330Z,3.40
2017-09-14T18:53:18.867Z,4.87
2017-09-14T18:55:46.375Z,3.83
2017-09-14T18:58:13.888Z,4.57
2017-09-14T19:00:42.173Z,8.53
2017-09-14T19:03:09.732Z,6.70
2017-09-14T19:05:37.999Z,8.73
2017-09-14T19:08:06.260Z,6.90
2017-09-14T19:10:34.043Z,6.37
2017-09-14T19:13:02.377Z,6.40
2017-09-14T19:15:30.150Z,5.40
2017-09-14T19:17:57.629Z,6.70
2017-09-14T19:20:25.870Z,5.43
2017-09-14T19:22:53.353Z,4.17
2017-09-14T19:25:20.956Z,13.00
2017-09-14T19:27:48.565Z,9.63
2017-09-14T19:30:16.162Z,10.87
2017-09-14T19:32:43.749Z,8.23
2017-09-14T19:35:11.257Z,10.63
2017-09-14T19:37:39.239Z,22.10
2017-09-14T19:40:06.834Z,10.17
2017-09-14T19:42:34.341Z,10.07
2017-09-14T19:45:02.341Z,15.40
2017-09-14T19:47:30.069Z,8.87
2017-09-14T19:49:57.595Z,18.70
2017-09-14T19:52:25.738Z,7.20
2017-09-14T19:54:53.208Z,10.57
2017-09-14T19:57:20.742Z,9.50
2017-09-14T19:59:49.026Z,14.90
2017-09-14T20:02:16.778Z,13.63
2017-09-14T20:04:45.048Z,13.60
2017-09-14T20:07:13.342Z,14.37
2017-09-14T20:09:40.886Z,14.43
2017-09-14T20:12:09.213Z,11.20
2017-09-14T20:14:36.705Z,9.07
2017-09-14T20:17:04.632Z,12.00
2017-09-14T20:19:32.601Z,26.00
2017-09-14T20:22:00.847Z,7.27
2017-09-14T20:24:28.338Z,11.03
2017-09-14T20:26:55.849Z,7.67
2017-09-14T20:29:23.967Z,13.83
2017-09-14T20:31:52.321Z,12.20
2017-09-14T20:34:19.881Z,4.60
2017-09-14T20:36:47.423Z,10.33
2017-09-14T20:39:15.660Z,14.00
2017-09-14T20:41:43.276Z,9.33
2017-09-14T20:44:10.802Z,13.37
2017-09-14T20:46:38.314Z,8.07
2017-09-14T20:49:06.225Z,7.03
2017-09-14T20:51:33.726Z,12.10
2017-09-14T20:54:02.189Z,11.40
2017-09-14T20:56:29.643Z,8.73
2017-09-14T20:58:57.244Z,6.33
2017-09-14T21:01:24.808Z,10.23
2017-09-14T21:03:52.302Z,11.13
2017-09-14T21:06:20.614Z,13.67
2017-09-14T21:08:48.097Z,10.93
2017-09-14T21:11:15.572Z,11.83
2017-09-14T21:13:43.075Z,12.20
2017-09-14T21:16:10.615Z,10.13
2017-09-14T21:18:38.931Z,11.30
2017-09-14T21:21:06.441Z,15.60
2017-09-14T21:23:33.991Z,19.03
2017-09-14T21:26:01.496Z,6.97
2017-09-14T21:28:29.042Z,8.83
2017-09-14T21:30:56.875Z,10.63
2017-09-14T21:33:24.362Z,13.63
2017-09-14T21:35:52.074Z,21.73
2017-09-14T21:38:19.646Z,15.03
2017-09-14T21:40:47.129Z,15.17
2017-09-14T21:43:15.477Z,17.93
2017-09-14T21:45:42.955Z,19.70
2017-09-14T21:48:11.258Z,15.83
2017-09-14T21:50:38.791Z,10.10
2017-09-14T21:53:07.112Z,10.93
2017-09-14T21:55:34.590Z,10.20
2017-09-14T21:58:03.181Z,10.47
2017-09-14T22:00:30.706Z,10.87
2017-09-14T22:02:58.220Z,10.27
2017-09-14T22:05:25.709Z,14.47
2017-09-14T22:07:53.465Z,14.17
2017-09-14T22:10:21.979Z,12.07
2017-09-14T22:12:49.523Z,16.03
2017-09-14T22:15:16.991Z,14.87
2017-09-14T22:17:44.515Z,14.30
2017-09-14T22:20:11.971Z,20.83
2017-09-14T22:22:40.311Z,14.33
2017-09-14T22:25:07.865Z,17.90
2017-09-14T22:27:35.366Z,15.40
2017-09-14T22:30:03.645Z,22.17
2017-09-14T22:32:32.793Z,19.53
2017-09-14T22:35:00.295Z,18.63
2017-09-14T22:37:28.555Z,15.67
2017-09-14T22:39:56.216Z,18.77
2017-09-14T22:42:23.822Z,21.47
2017-09-14T22:44:51.710Z,17.70
2017-09-14T22:47:19.277Z,14.40
2017-09-14T22:49:46.859Z,25.57
2017-09-14T22:52:14.362Z,15.20
2017-09-14T22:54:41.858Z,18.73
2017-09-14T22:57:09.429Z,12.80
2017-09-14T22:59:36.949Z,13.80
2017-09-14T23:02:04.420Z,19.27
2017-09-14T23:04:31.903Z,19.67
2017-09-14T23:06:59.378Z,20.93
2017-09-14T23:09:28.141Z,20.73
2017-09-14T23:11:55.668Z,12.57
2017-09-14T23:14:23.322Z,17.23
2017-09-14T23:16:50.807Z,23.20
2017-09-14T23:19:18.301Z,28.87
2017-09-14T23:21:45.825Z,22.37
2017-09-14T23:24:14.129Z,21.30
2017-09-14T23:26:42.422Z,23.03
2017-09-14T23:29:10.673Z,20.13
2017-09-14T23:31:38.578Z,21.73
2017-09-14T23:34:06.058Z,19.30
2017-09-14T23:36:33.537Z,27.30
2017-09-14T23:39:01.049Z,23.07
2017-09-14T23:41:29.323Z,19.87
2017-09-14T23:43:57.610Z,14.20
2017-09-14T23:46:25.078Z,21.90
2017-09-14T23:48:53.309Z,9.63
2017-09-14T23:51:21.543Z,10.90
2017-09-14T23:53:49.682Z,22.37
2017-09-14T23:56:17.217Z,16.97
2017-09-14T23:58:45.484Z,17.87
